createdAt,value
2018-12-24T00:02:03.386Z,1.53
2018-12-24T00:04:31.961Z,1.30
2018-12-24T00:07:00.531Z,1.00
2018-12-24T00:09:29.195Z,1.13
2018-12-24T00:11:57.737Z,1.00
2018-12-24T00:14:26.293Z,1.13
2018-12-24T00:16:54.870Z,1.10
2018-12-24T00:19:23.389Z,1.20
2018-12-24T00:21:52.008Z,1.00
2018-12-24T00:24:20.608Z,1.40
2018-12-24T00:26:49.212Z,1.40
2018-12-24T00:29:17.738Z,1.00
2018-12-24T00:31:46.369Z,1.00
2018-12-24T00:34:14.908Z,0.90
2018-12-24T00:36:43.460Z,1.80
2018-12-24T00:39:12.074Z,1.00
2018-12-24T00:41:40.689Z,2.60
2018-12-24T00:44:09.205Z,1.30
2018-12-24T00:46:37.847Z,1.00
2018-12-24T00:49:06.369Z,1.20
2018-12-24T00:51:34.920Z,1.00
2018-12-24T00:54:03.460Z,1.00
2018-12-24T00:56:32.020Z,1.20
2018-12-24T00:59:00.554Z,1.87
2018-12-24T01:01:29.101Z,1.10
2018-12-24T01:03:57.658Z,1.20
2018-12-24T01:06:26.246Z,1.10
2018-12-24T01:08:54.794Z,1.50
2018-12-24T01:11:23.340Z,1.50
2018-12-24T01:13:51.883Z,0.90
2018-12-24T01:16:20.411Z,1.00
2018-12-24T01:18:49.022Z,1.00
2018-12-24T01:21:17.621Z,0.90
2018-12-24T01:23:46.156Z,1.00
2018-12-24T01:26:14.722Z,1.00
2018-12-24T01:28:43.303Z,0.90
2018-12-24T01:31:12.045Z,1.60
2018-12-24T01:33:40.600Z,1.30
2018-12-24T01:36:09.141Z,1.10
2018-12-24T01:38:37.683Z,1.00
2018-12-24T01:41:06.236Z,0.90
2018-12-24T01:43:34.801Z,1.00
2018-12-24T01:46:03.330Z,1.10
2018-12-24T01:48:31.858Z,0.90
2018-12-24T01:51:00.409Z,0.90
2018-12-24T01:53:28.945Z,0.90
2018-12-24T01:55:57.673Z,1.00
2018-12-24T01:58:26.181Z,1.10
2018-12-24T02:00:54.710Z,1.00
2018-12-24T02:03:23.221Z,1.63
2018-12-24T02:05:51.792Z,2.50
2018-12-24T02:08:20.395Z,2.73
2018-12-24T02:10:48.932Z,1.00
2018-12-24T02:13:17.461Z,1.37
2018-12-24T02:15:46.004Z,1.70
2018-12-24T02:18:14.546Z,2.90
2018-12-24T02:20:43.213Z,1.50
2018-12-24T02:23:11.730Z,2.00
2018-12-24T02:25:40.268Z,1.33
2018-12-24T02:28:08.804Z,3.43
2018-12-24T02:30:37.321Z,2.17
2018-12-24T02:33:05.860Z,2.63
2018-12-24T02:35:34.374Z,2.10
2018-12-24T02:38:02.926Z,3.63
2018-12-24T02:40:31.451Z,1.87
2018-12-24T02:42:59.982Z,3.20
2018-12-24T02:45:28.503Z,1.87
2018-12-24T02:47:57.070Z,2.77
2018-12-24T02:50:25.586Z,1.83
2018-12-24T02:52:54.114Z,1.30
2018-12-24T02:55:22.754Z,1.03
2018-12-24T02:57:51.296Z,1.10
2018-12-24T03:00:19.824Z,2.07
2018-12-24T03:02:48.369Z,1.10
2018-12-24T03:05:16.889Z,3.03
2018-12-24T03:07:45.430Z,1.40
2018-12-24T03:10:13.961Z,2.00
2018-12-24T03:12:42.509Z,2.13
2018-12-24T03:15:11.049Z,1.10
2018-12-24T03:17:39.605Z,1.27
2018-12-24T03:20:08.238Z,1.10
2018-12-24T03:22:36.800Z,2.05
2018-12-24T03:25:05.794Z,1.10
2018-12-24T03:27:34.320Z,1.40
2018-12-24T03:30:02.904Z,1.10
2018-12-24T03:32:31.464Z,1.10
2018-12-24T03:35:00.027Z,1.40
2018-12-24T03:37:28.612Z,1.60
2018-12-24T03:39:57.176Z,1.40
2018-12-24T03:42:25.710Z,1.07
2018-12-24T03:44:54.258Z,1.20
2018-12-24T03:47:22.793Z,1.10
2018-12-24T03:49:51.330Z,1.40
2018-12-24T03:52:19.842Z,2.07
2018-12-24T03:54:48.387Z,1.73
2018-12-24T03:57:16.901Z,0.90
2018-12-24T03:59:45.464Z,1.40
2018-12-24T04:02:13.990Z,1.00
2018-12-24T04:04:42.504Z,1.20
2018-12-24T04:07:11.044Z,1.20
2018-12-24T04:09:39.567Z,1.10
2018-12-24T04:12:08.277Z,1.10
2018-12-24T04:14:36.794Z,1.00
2018-12-24T04:17:06.346Z,1.00
2018-12-24T04:19:34.855Z,1.27
2018-12-24T04:22:03.413Z,1.00
2018-12-24T04:24:32.092Z,1.10
2018-12-24T04:27:00.624Z,0.90
2018-12-24T04:29:29.225Z,1.10
2018-12-24T04:31:57.758Z,0.90
2018-12-24T04:34:26.272Z,1.20
2018-12-24T04:36:54.832Z,1.00
2018-12-24T04:39:23.556Z,1.00
2018-12-24T04:41:52.102Z,1.10
2018-12-24T04:44:20.634Z,1.00
2018-12-24T04:46:49.197Z,1.57
2018-12-24T04:49:17.736Z,1.00
2018-12-24T04:51:46.288Z,1.00
2018-12-24T04:54:15.372Z,1.10
2018-12-24T04:56:43.893Z,1.00
2018-12-24T04:59:12.457Z,1.00
2018-12-24T05:01:40.980Z,1.00
2018-12-24T05:04:09.508Z,2.55
2018-12-24T05:06:38.123Z,1.00
2018-12-24T05:09:07.202Z,0.90
2018-12-24T05:11:35.779Z,1.10
2018-12-24T05:14:04.316Z,1.00
2018-12-24T05:16:32.824Z,1.10
2018-12-24T05:19:01.365Z,1.00
2018-12-24T05:21:29.887Z,1.20
2018-12-24T05:23:58.437Z,1.10
2018-12-24T05:26:26.967Z,1.10
2018-12-24T05:28:55.496Z,1.00
2018-12-24T05:31:24.042Z,1.00
2018-12-24T05:33:52.565Z,1.02
2018-12-24T05:36:21.102Z,1.10
2018-12-24T05:38:49.606Z,1.10
2018-12-24T05:41:18.178Z,1.10
2018-12-24T05:43:49.523Z,1.20
2018-12-24T05:46:16.977Z,1.10
2018-12-24T05:48:45.493Z,1.10
2018-12-24T05:51:14.038Z,1.70
2018-12-24T05:53:42.565Z,1.10
2018-12-24T05:56:11.120Z,1.00
2018-12-24T05:58:39.632Z,1.10
2018-12-24T06:01:08.340Z,1.80
2018-12-24T06:03:36.867Z,1.10
2018-12-24T06:06:05.409Z,1.60
2018-12-24T06:08:33.933Z,1.20
2018-12-24T06:11:02.479Z,1.30
2018-12-24T06:13:31.021Z,1.30
2018-12-24T06:15:59.535Z,1.07
2018-12-24T06:18:28.086Z,1.20
2018-12-24T06:20:56.620Z,1.10
2018-12-24T06:23:25.226Z,1.20
2018-12-24T06:25:55.671Z,1.10
2018-12-24T06:28:24.032Z,1.10
2018-12-24T06:30:52.684Z,1.20
2018-12-24T06:33:21.271Z,1.20
2018-12-24T06:35:49.853Z,1.20
2018-12-24T06:38:18.385Z,1.10
2018-12-24T06:40:46.902Z,1.10
2018-12-24T06:43:15.449Z,1.10
2018-12-24T06:45:44.590Z,1.10
2018-12-24T06:48:13.126Z,1.10
2018-12-24T06:50:41.686Z,1.10
2018-12-24T06:53:10.251Z,1.10
2018-12-24T06:55:38.937Z,1.20
2018-12-24T06:58:07.558Z,1.20
2018-12-24T07:00:36.085Z,1.10
2018-12-24T07:03:04.623Z,1.90
2018-12-24T07:05:33.160Z,1.32
2018-12-24T07:08:01.689Z,1.20
2018-12-24T07:10:30.210Z,1.20
2018-12-24T07:12:58.765Z,1.22
2018-12-24T07:15:27.278Z,1.80
2018-12-24T07:17:55.826Z,1.20
2018-12-24T07:20:24.477Z,1.20
2018-12-24T07:22:53.073Z,1.60
2018-12-24T07:25:21.621Z,1.60
2018-12-24T07:27:50.138Z,1.20
2018-12-24T07:30:18.701Z,1.40
2018-12-24T07:32:47.216Z,1.50
2018-12-24T07:35:15.765Z,1.30
2018-12-24T07:37:44.278Z,1.47
2018-12-24T07:40:12.858Z,1.30
2018-12-24T07:42:41.470Z,1.30
2018-12-24T07:45:10.019Z,1.60
2018-12-24T07:47:38.544Z,1.50
2018-12-24T07:50:07.064Z,1.30
2018-12-24T07:52:35.602Z,1.60
2018-12-24T07:55:04.128Z,1.50
2018-12-24T07:57:32.676Z,1.40
2018-12-24T08:00:01.184Z,1.30
2018-12-24T08:02:29.777Z,1.60
2018-12-24T08:04:58.368Z,1.30
2018-12-24T08:07:26.912Z,1.40
2018-12-24T08:09:55.503Z,2.83
2018-12-24T08:12:24.029Z,1.70
2018-12-24T08:14:52.549Z,1.60
2018-12-24T08:17:21.069Z,1.50
2018-12-24T08:19:49.659Z,1.37
2018-12-24T08:22:18.258Z,1.40
2018-12-24T08:24:46.778Z,1.35
2018-12-24T08:27:15.345Z,1.40
2018-12-24T08:29:43.876Z,1.40
2018-12-24T08:32:12.437Z,2.43
2018-12-24T08:34:40.977Z,1.77
2018-12-24T08:37:09.574Z,1.60
2018-12-24T08:39:38.123Z,2.00
2018-12-24T08:42:06.647Z,1.50
2018-12-24T08:44:41.784Z,1.50
2018-12-24T08:47:05.837Z,1.40
2018-12-24T08:49:34.623Z,1.47
2018-12-24T08:52:03.225Z,1.40
2018-12-24T08:54:31.768Z,1.60
2018-12-24T08:57:00.302Z,1.40
2018-12-24T08:59:28.845Z,1.73
2018-12-24T09:01:58.120Z,2.00
2018-12-24T09:04:26.816Z,1.50
2018-12-24T09:06:55.414Z,1.72
2018-12-24T09:09:23.952Z,1.60
2018-12-24T09:11:52.487Z,1.70
2018-12-24T09:14:21.099Z,1.98
2018-12-24T09:16:49.637Z,2.10
2018-12-24T09:19:18.181Z,2.00
2018-12-24T09:21:46.715Z,2.10
2018-12-24T09:24:15.338Z,2.30
2018-12-24T09:26:43.946Z,2.20
2018-12-24T09:29:12.473Z,2.30
2018-12-24T09:31:41.056Z,2.30
2018-12-24T09:34:09.556Z,2.85
2018-12-24T09:36:38.132Z,2.60
2018-12-24T09:39:07.018Z,3.00
2018-12-24T09:41:35.722Z,2.90
2018-12-24T09:44:04.263Z,3.25
2018-12-24T09:46:32.820Z,3.30
2018-12-24T09:49:01.365Z,3.40
2018-12-24T09:51:29.977Z,3.20
2018-12-24T09:54:00.059Z,3.20
2018-12-24T09:56:28.621Z,2.80
2018-12-24T09:58:57.236Z,2.90
2018-12-24T10:01:25.763Z,2.90
2018-12-24T10:04:02.709Z,2.90
2018-12-24T10:06:24.602Z,3.30
2018-12-24T10:08:53.146Z,3.10
2018-12-24T10:11:21.676Z,2.85
2018-12-24T10:13:50.217Z,2.70
2018-12-24T10:16:18.738Z,2.75
2018-12-24T10:18:47.296Z,2.63
2018-12-24T10:21:15.824Z,2.55
2018-12-24T10:23:44.357Z,1.72
2018-12-24T10:26:12.904Z,1.95
2018-12-24T10:28:41.456Z,2.90
2018-12-24T10:31:10.038Z,2.00
2018-12-24T10:33:38.605Z,3.00
2018-12-24T10:36:07.190Z,2.00
2018-12-24T10:38:35.788Z,2.40
2018-12-24T10:41:04.314Z,1.50
2018-12-24T10:43:32.837Z,1.50
2018-12-24T10:46:01.432Z,1.70
2018-12-24T10:48:30.010Z,1.90
2018-12-24T10:50:58.559Z,1.45
2018-12-24T10:53:27.104Z,2.35
2018-12-24T10:55:55.671Z,1.98
2018-12-24T10:58:24.188Z,2.00
2018-12-24T11:00:52.826Z,2.40
2018-12-24T11:03:21.349Z,2.55
2018-12-24T11:05:49.922Z,3.03
2018-12-24T11:08:18.430Z,3.35
2018-12-24T11:10:46.954Z,3.80
2018-12-24T11:13:15.496Z,4.12
2018-12-24T11:15:47.160Z,4.00
2018-12-24T11:18:15.696Z,4.10
2018-12-24T11:20:44.211Z,4.30
2018-12-24T11:23:12.774Z,4.10
2018-12-24T11:25:41.333Z,4.15
2018-12-24T11:28:09.856Z,4.40
2018-12-24T11:30:38.367Z,4.12
2018-12-24T11:33:06.910Z,4.60
2018-12-24T11:35:35.444Z,4.50
2018-12-24T11:38:03.981Z,5.05
2018-12-24T11:40:32.493Z,6.00
2018-12-24T11:43:01.066Z,5.03
2018-12-24T11:45:33.794Z,4.40
2018-12-24T11:48:01.241Z,4.72
2018-12-24T11:50:29.797Z,3.70
2018-12-24T11:52:58.375Z,3.70
2018-12-24T11:55:26.920Z,3.37
2018-12-24T11:57:55.489Z,3.42
2018-12-24T12:00:24.005Z,3.20
2018-12-24T12:02:52.591Z,3.20
2018-12-24T12:05:21.130Z,3.20
2018-12-24T12:07:49.690Z,2.75
2018-12-24T12:10:18.214Z,3.05
2018-12-24T12:12:46.810Z,3.40
2018-12-24T12:15:15.395Z,4.33
2018-12-24T12:17:43.909Z,5.50
2018-12-24T12:20:12.510Z,6.03
2018-12-24T12:22:41.043Z,5.95
2018-12-24T12:25:09.750Z,5.95
2018-12-24T12:27:38.294Z,5.65
2018-12-24T12:30:08.881Z,3.80
2018-12-24T12:32:37.400Z,1.60
2018-12-24T12:35:06.047Z,2.55
2018-12-24T12:37:34.566Z,1.70
2018-12-24T12:40:03.111Z,2.02
2018-12-24T12:42:31.637Z,2.25
2018-12-24T12:45:00.229Z,2.77
2018-12-24T12:47:28.777Z,2.65
2018-12-24T12:49:57.353Z,2.90
2018-12-24T12:52:25.901Z,2.70
2018-12-24T12:54:54.447Z,2.80
2018-12-24T12:57:23.005Z,3.25
2018-12-24T12:59:51.510Z,2.98
2018-12-24T13:02:20.082Z,3.17
2018-12-24T13:04:48.596Z,2.90
2018-12-24T13:07:17.132Z,3.63
2018-12-24T13:09:45.686Z,3.42
2018-12-24T13:12:14.229Z,4.10
2018-12-24T13:14:42.769Z,3.98
2018-12-24T13:17:11.343Z,4.00
2018-12-24T13:19:39.857Z,3.67
2018-12-24T13:22:08.400Z,2.33
2018-12-24T13:24:36.929Z,3.10
2018-12-24T13:27:06.926Z,2.72
2018-12-24T13:29:35.680Z,2.80
2018-12-24T13:32:04.237Z,3.30
2018-12-24T13:34:32.848Z,3.60
2018-12-24T13:37:01.456Z,3.90
2018-12-24T13:39:29.997Z,3.70
2018-12-24T13:41:58.548Z,3.37
2018-12-24T13:44:27.090Z,3.10
2018-12-24T13:46:55.629Z,2.30
2018-12-24T13:49:24.183Z,2.00
2018-12-24T13:51:52.701Z,1.50
2018-12-24T13:54:21.271Z,1.50
2018-12-24T13:56:49.780Z,1.80
2018-12-24T13:59:57.256Z,2.00
2018-12-24T14:02:25.734Z,1.87
2018-12-24T14:04:54.222Z,1.90
2018-12-24T14:07:22.640Z,2.12
2018-12-24T14:09:51.097Z,2.40
2018-12-24T14:12:19.581Z,2.70
2018-12-24T14:14:48.051Z,2.65
2018-12-24T14:17:16.573Z,3.50
2018-12-24T14:19:45.019Z,3.45
2018-12-24T14:22:13.464Z,3.10
2018-12-24T14:24:41.889Z,3.17
2018-12-24T14:27:10.362Z,3.00
2018-12-24T14:29:38.818Z,3.37
2018-12-24T14:32:07.248Z,3.40
2018-12-24T14:34:35.693Z,4.00
2018-12-24T14:37:04.166Z,3.55
2018-12-24T14:39:32.609Z,2.95
2018-12-24T14:42:01.094Z,3.12
2018-12-24T14:44:29.528Z,2.70
2018-12-24T14:46:57.969Z,2.83
2018-12-24T14:49:26.384Z,3.37
2018-12-24T14:51:54.828Z,2.70
2018-12-24T14:54:23.309Z,2.70
2018-12-24T14:56:51.786Z,2.90
2018-12-24T14:59:20.217Z,3.27
2018-12-24T15:01:48.717Z,3.25
2018-12-24T15:04:17.145Z,2.90
2018-12-24T15:06:45.600Z,3.25
2018-12-24T15:09:14.054Z,3.47
2018-12-24T15:11:42.574Z,3.40
2018-12-24T15:14:10.981Z,3.58
2018-12-24T15:16:39.500Z,3.60
2018-12-24T15:19:07.937Z,4.03
2018-12-24T15:21:36.395Z,5.40
2018-12-24T15:24:04.862Z,9.45
2018-12-24T15:26:33.291Z,5.50
2018-12-24T15:29:01.713Z,3.87
2018-12-24T15:31:30.213Z,4.20
2018-12-24T15:33:58.712Z,3.90
2018-12-24T15:36:27.221Z,4.20
2018-12-24T15:38:55.677Z,4.10
2018-12-24T15:41:26.069Z,4.15
2018-12-24T15:43:54.277Z,4.40
2018-12-24T15:46:22.762Z,4.30
2018-12-24T15:48:51.204Z,4.30
2018-12-24T15:51:19.623Z,5.97
2018-12-24T15:53:48.121Z,6.50
2018-12-24T15:56:16.738Z,6.95
2018-12-24T15:58:45.177Z,6.08
2018-12-24T16:01:13.591Z,6.30
2018-12-24T16:03:42.024Z,5.58
2018-12-24T16:06:10.459Z,5.67
2018-12-24T16:08:38.909Z,4.70
2018-12-24T16:11:07.351Z,4.25
2018-12-24T16:13:35.829Z,4.20
2018-12-24T16:16:04.317Z,4.25
2018-12-24T16:18:32.744Z,6.65
2018-12-24T16:21:01.172Z,4.87
2018-12-24T16:23:29.672Z,4.10
2018-12-24T16:25:58.115Z,3.83
2018-12-24T16:28:26.523Z,3.83
2018-12-24T16:30:54.958Z,4.30
2018-12-24T16:33:23.414Z,4.00
2018-12-24T16:35:51.864Z,4.12
2018-12-24T16:38:20.346Z,4.75
2018-12-24T16:40:48.805Z,4.58
2018-12-24T16:43:17.278Z,4.43
2018-12-24T16:45:45.797Z,4.53
2018-12-24T16:48:14.225Z,4.62
2018-12-24T16:50:42.690Z,4.80
2018-12-24T17:54:43.857Z,7.57
2018-12-24T17:57:12.384Z,7.45
2018-12-24T17:59:40.798Z,7.85
2018-12-24T18:02:09.227Z,7.78
2018-12-24T18:04:37.834Z,8.10
2018-12-24T18:07:06.254Z,7.10
2018-12-24T18:09:34.754Z,8.50
2018-12-24T18:12:03.159Z,8.25
2018-12-24T18:14:31.656Z,7.83
2018-12-24T18:17:00.066Z,9.03
2018-12-24T18:19:28.601Z,10.98
2018-12-24T18:21:57.034Z,9.70
2018-12-24T18:24:25.491Z,9.28
2018-12-24T18:26:53.897Z,8.65
2018-12-24T18:29:22.464Z,9.73
2018-12-24T18:31:50.913Z,9.43
2018-12-24T18:34:19.362Z,11.88
2018-12-24T18:36:47.811Z,9.75
2018-12-24T18:39:16.245Z,10.18
2018-12-24T18:41:44.694Z,10.55
2018-12-24T18:44:13.208Z,10.18
2018-12-24T18:46:41.645Z,10.80
2018-12-24T18:49:10.079Z,10.78
2018-12-24T18:51:38.526Z,10.95
2018-12-24T18:54:08.610Z,10.53
2018-12-24T18:56:37.044Z,14.40
2018-12-24T18:59:05.480Z,13.38
2018-12-24T19:01:33.944Z,14.37
2018-12-24T19:04:02.381Z,10.53
2018-12-24T19:06:30.897Z,10.30
2018-12-24T19:08:59.322Z,9.78
2018-12-24T19:11:27.782Z,12.50
2018-12-24T19:13:56.217Z,18.25
2018-12-24T19:16:24.668Z,9.93
2018-12-24T19:18:53.090Z,9.30
2018-12-24T19:21:21.592Z,10.05
2018-12-24T19:23:51.542Z,10.23
2018-12-24T19:26:20.111Z,9.88
2018-12-24T19:28:48.561Z,10.50
2018-12-24T19:31:17.038Z,9.90
2018-12-24T19:33:45.481Z,9.98
2018-12-24T19:36:13.937Z,10.30
2018-12-24T19:38:42.383Z,10.70
2018-12-24T19:41:10.795Z,10.65
2018-12-24T19:43:39.320Z,11.28
2018-12-24T19:46:07.743Z,11.08
2018-12-24T19:48:36.182Z,10.33
2018-12-24T19:51:04.675Z,10.63
2018-12-24T19:53:33.140Z,11.20
2018-12-24T19:56:01.567Z,9.95
2018-12-24T19:58:30.020Z,10.32
2018-12-24T20:00:58.466Z,10.72
2018-12-24T20:03:26.944Z,11.22
2018-12-24T20:05:55.352Z,12.23
2018-12-24T20:08:23.818Z,12.13
2018-12-24T20:10:52.248Z,10.80
2018-12-24T20:13:20.790Z,10.53
2018-12-24T20:15:49.274Z,9.20
2018-12-24T20:18:17.696Z,10.40
2018-12-24T20:20:46.161Z,11.10
2018-12-24T20:23:14.617Z,10.80
2018-12-24T20:25:43.145Z,9.90
2018-12-24T20:28:11.626Z,10.32
2018-12-24T20:30:40.072Z,9.50
2018-12-24T20:33:08.512Z,9.50
2018-12-24T20:35:36.997Z,9.30
2018-12-24T20:38:05.432Z,9.58
2018-12-24T20:40:33.901Z,9.25
2018-12-24T20:43:02.352Z,10.25
2018-12-24T20:45:30.805Z,9.50
2018-12-24T20:48:06.486Z,9.98
2018-12-24T20:50:29.451Z,9.97
2018-12-24T20:52:57.907Z,9.50
2018-12-24T20:55:26.461Z,8.40
2018-12-24T20:57:54.967Z,7.92
2018-12-24T21:00:23.421Z,8.20
2018-12-24T21:02:51.836Z,9.15
2018-12-24T21:05:20.288Z,8.60
2018-12-24T21:07:48.731Z,9.30
2018-12-24T21:10:17.158Z,7.90
2018-12-24T21:12:45.587Z,7.60
2018-12-24T21:15:14.026Z,7.78
2018-12-24T21:17:42.495Z,8.20
2018-12-24T21:20:10.926Z,8.03
2018-12-24T21:22:39.373Z,6.90
2018-12-24T21:25:07.788Z,6.67
2018-12-24T21:27:36.238Z,6.67
2018-12-24T21:30:05.297Z,7.30
2018-12-24T21:32:33.792Z,7.37
2018-12-24T21:35:02.207Z,6.50
2018-12-24T21:37:30.665Z,6.60
2018-12-24T21:39:59.105Z,6.67
2018-12-24T21:42:27.525Z,5.50
2018-12-24T21:44:56.167Z,5.70
2018-12-24T21:47:24.577Z,4.70
2018-12-24T21:49:53.014Z,5.60
2018-12-24T21:52:21.463Z,7.70
2018-12-24T21:54:49.897Z,5.20
2018-12-24T21:57:18.324Z,5.50
2018-12-24T21:59:46.771Z,5.37
2018-12-24T22:02:15.218Z,6.03
2018-12-24T22:04:43.658Z,5.50
2018-12-24T22:07:12.071Z,5.90
2018-12-24T22:09:40.521Z,6.00
2018-12-24T22:12:08.965Z,5.80
2018-12-24T22:14:37.392Z,5.70
2018-12-24T22:17:05.914Z,6.10
2018-12-24T22:19:34.635Z,6.05
2018-12-24T22:22:03.059Z,6.57
2018-12-24T22:24:31.480Z,6.20
2018-12-24T22:26:59.992Z,6.30
2018-12-24T22:29:28.443Z,6.43
2018-12-24T22:31:56.917Z,5.92
2018-12-24T22:34:25.397Z,6.67
2018-12-24T22:36:53.813Z,6.47
2018-12-24T22:39:22.266Z,7.03
2018-12-24T22:41:50.709Z,6.83
2018-12-24T22:44:19.322Z,7.10
2018-12-24T22:46:47.769Z,7.15
2018-12-24T22:49:16.205Z,6.90
2018-12-24T22:51:44.666Z,7.05
2018-12-24T22:54:13.085Z,6.92
2018-12-24T22:56:42.350Z,6.90
2018-12-24T22:59:10.941Z,6.58
2018-12-24T23:01:39.408Z,6.15
2018-12-24T23:04:07.821Z,7.30
2018-12-24T23:06:36.269Z,6.37
2018-12-24T23:09:07.254Z,6.83
2018-12-24T23:11:35.688Z,6.85
2018-12-24T23:14:04.133Z,6.87
2018-12-24T23:16:32.593Z,9.85
2018-12-24T23:19:01.006Z,6.90
2018-12-24T23:21:29.453Z,6.80
2018-12-24T23:23:57.903Z,8.08
2018-12-24T23:26:26.308Z,6.85
2018-12-24T23:28:54.769Z,7.10
2018-12-24T23:31:23.246Z,7.10
2018-12-24T23:33:51.697Z,7.10
2018-12-24T23:36:20.110Z,6.72
2018-12-24T23:38:48.565Z,8.30
2018-12-24T23:41:16.996Z,6.70
2018-12-24T23:43:45.469Z,7.10
2018-12-24T23:46:13.949Z,7.10
2018-12-24T23:48:42.381Z,7.00
2018-12-24T23:51:10.814Z,6.97
2018-12-24T23:53:39.265Z,6.95
2018-12-24T23:56:07.683Z,7.50
2018-12-24T23:58:36.186Z,7.40
